createdAt,value
2019-03-28T00:02:28.273Z,62.02
2019-03-28T00:04:56.742Z,61.80
2019-03-28T00:07:25.279Z,62.36
2019-03-28T00:09:53.786Z,61.54
2019-03-28T00:12:22.269Z,61.78
2019-03-28T00:14:50.766Z,61.66
2019-03-28T00:17:19.235Z,60.91
2019-03-28T00:19:47.714Z,60.78
2019-03-28T00:22:17.853Z,60.71
2019-03-28T00:24:56.984Z,60.39
2019-03-28T00:27:25.448Z,60.43
2019-03-28T00:29:54.338Z,60.83
2019-03-28T00:32:23.016Z,61.63
2019-03-28T00:34:51.485Z,61.95
2019-03-28T00:37:19.979Z,61.54
2019-03-28T00:39:48.450Z,62.04
2019-03-28T00:42:17.064Z,62.53
2019-03-28T00:44:45.537Z,62.50
2019-03-28T00:47:14.011Z,63.01
2019-03-28T00:49:43.194Z,63.03
2019-03-28T00:52:11.765Z,62.56
2019-03-28T00:54:40.228Z,62.14
2019-03-28T00:57:08.709Z,61.95
2019-03-28T00:59:37.177Z,61.99
2019-03-28T01:02:05.643Z,61.69
2019-03-28T01:04:34.130Z,61.25
2019-03-28T01:07:02.627Z,60.72
2019-03-28T01:09:31.385Z,62.13
2019-03-28T01:12:00.074Z,61.90
2019-03-28T01:14:28.554Z,62.05
2019-03-28T01:16:57.029Z,63.35
2019-03-28T01:19:25.528Z,63.85
2019-03-28T01:21:53.995Z,65.28
2019-03-28T01:24:22.494Z,65.71
2019-03-28T01:26:57.140Z,65.41
2019-03-28T01:29:21.171Z,65.97
2019-03-28T01:31:49.670Z,65.06
2019-03-28T01:34:18.155Z,65.48
2019-03-28T01:36:46.650Z,64.94
2019-03-28T01:39:15.110Z,63.59
2019-03-28T01:41:43.581Z,63.45
2019-03-28T01:44:12.054Z,62.93
2019-03-28T01:46:40.721Z,63.00
2019-03-28T01:49:09.185Z,64.13
2019-03-28T01:51:37.664Z,64.11
2019-03-28T01:54:06.144Z,64.07
2019-03-28T01:56:34.696Z,65.69
2019-03-28T01:59:03.238Z,64.99
2019-03-28T02:01:31.707Z,64.10
2019-03-28T02:04:00.202Z,64.57
2019-03-28T02:06:28.666Z,65.06
2019-03-28T02:08:57.132Z,66.70
2019-03-28T02:11:25.627Z,66.21
2019-03-28T02:13:54.127Z,66.65
2019-03-28T02:16:22.635Z,68.20
2019-03-28T02:18:51.087Z,68.17
2019-03-28T02:21:19.590Z,67.98
2019-03-28T02:23:48.085Z,68.32
2019-03-28T02:26:16.588Z,69.15
2019-03-28T02:28:45.051Z,69.41
2019-03-28T02:31:13.556Z,69.38
2019-03-28T02:33:42.020Z,68.59
2019-03-28T02:36:10.497Z,70.07
2019-03-28T02:38:38.990Z,70.83
2019-03-28T02:41:08.667Z,70.94
2019-03-28T02:43:37.429Z,71.63
2019-03-28T02:46:05.934Z,71.75
2019-03-28T02:48:34.395Z,73.82
2019-03-28T02:51:03.749Z,73.68
2019-03-28T02:53:32.704Z,73.73
2019-03-28T02:56:01.206Z,73.41
2019-03-28T02:58:29.668Z,73.97
2019-03-28T03:00:58.165Z,74.39
2019-03-28T03:03:26.660Z,74.89
2019-03-28T03:05:55.136Z,75.44
2019-03-28T03:08:23.625Z,75.19
2019-03-28T03:10:52.122Z,73.95
2019-03-28T03:13:20.603Z,73.73
2019-03-28T03:15:49.068Z,72.70
2019-03-28T03:18:21.233Z,72.48
2019-03-28T03:20:47.808Z,71.37
2019-03-28T03:23:16.324Z,71.53
2019-03-28T03:25:44.791Z,72.19
2019-03-28T03:28:13.268Z,73.15
2019-03-28T03:30:41.753Z,73.28
2019-03-28T03:33:10.212Z,73.10
2019-03-28T03:35:38.689Z,72.86
2019-03-28T03:38:07.166Z,72.30
2019-03-28T03:40:35.662Z,71.84
2019-03-28T03:43:04.197Z,70.70
2019-03-28T03:45:32.681Z,71.70
2019-03-28T03:48:01.146Z,71.80
2019-03-28T03:50:30.281Z,71.89
2019-03-28T03:52:58.930Z,72.67
2019-03-28T03:55:27.404Z,74.19
2019-03-28T03:58:13.291Z,74.02
2019-03-28T04:00:32.437Z,73.26
2019-03-28T04:03:02.984Z,72.03
2019-03-28T04:05:32.102Z,72.03
2019-03-28T04:08:00.760Z,72.33
2019-03-28T04:10:29.302Z,72.63
2019-03-28T04:12:57.960Z,72.90
2019-03-28T04:15:26.489Z,72.96
2019-03-28T04:17:55.115Z,72.76
2019-03-28T04:20:24.870Z,72.28
2019-03-28T04:22:53.809Z,72.35
2019-03-28T04:25:22.359Z,72.28
2019-03-28T04:27:50.918Z,71.15
2019-03-28T04:30:19.563Z,69.83
2019-03-28T04:32:48.085Z,70.48
2019-03-28T04:35:16.606Z,72.12
2019-03-28T04:37:45.171Z,73.70
2019-03-28T04:40:14.032Z,75.27
2019-03-28T04:42:45.557Z,74.40
2019-03-28T04:45:13.003Z,74.34
2019-03-28T04:47:41.604Z,74.89
2019-03-28T04:50:10.580Z,74.71
2019-03-28T04:52:39.159Z,72.01
2019-03-28T04:55:08.177Z,70.97
2019-03-28T04:57:36.696Z,70.23
2019-03-28T05:00:09.609Z,69.29
2019-03-28T05:02:38.277Z,68.58
2019-03-28T05:05:07.774Z,68.64
2019-03-28T05:07:36.295Z,69.23
2019-03-28T05:10:08.099Z,69.91
2019-03-28T05:12:36.725Z,69.40
2019-03-28T05:15:10.324Z,69.19
2019-03-28T05:17:39.006Z,69.36
2019-03-28T05:20:08.116Z,69.26
2019-03-28T05:22:36.764Z,69.92
2019-03-28T05:25:07.256Z,70.16
2019-03-28T05:27:35.899Z,68.92
2019-03-28T05:30:08.834Z,68.91
2019-03-28T05:32:37.350Z,68.71
2019-03-28T05:35:07.922Z,68.67
2019-03-28T05:37:36.713Z,68.39
2019-03-28T05:40:07.413Z,68.19
2019-03-28T05:42:35.931Z,67.68
2019-03-28T05:45:06.731Z,68.08
2019-03-28T05:47:35.491Z,68.20
2019-03-28T05:50:05.451Z,68.35
2019-03-28T05:52:33.947Z,68.75
2019-03-28T05:55:05.247Z,67.90
2019-03-28T05:57:32.642Z,70.93
2019-03-28T06:00:01.126Z,70.86
2019-03-28T06:02:29.616Z,70.36
2019-03-28T06:04:58.081Z,69.97
2019-03-28T06:07:26.645Z,69.47
2019-03-28T06:09:55.125Z,68.78
2019-03-28T06:12:23.679Z,67.60
2019-03-28T06:14:52.157Z,67.44
2019-03-28T06:17:20.659Z,67.78
2019-03-28T06:19:50.102Z,66.77
2019-03-28T06:22:18.671Z,66.49
2019-03-28T06:24:47.144Z,65.89
2019-03-28T06:27:15.624Z,66.10
2019-03-28T06:29:44.090Z,67.03
2019-03-28T06:32:12.576Z,68.97
2019-03-28T06:34:41.051Z,69.89
2019-03-28T06:37:09.537Z,70.19
2019-03-28T06:39:38.057Z,68.90
2019-03-28T06:42:06.553Z,68.10
2019-03-28T06:44:35.037Z,67.78
2019-03-28T06:47:03.518Z,67.59
2019-03-28T06:49:31.997Z,67.31
2019-03-28T06:52:00.465Z,67.36
2019-03-28T06:54:28.974Z,66.54
2019-03-28T06:56:57.444Z,66.03
2019-03-28T06:59:36.778Z,66.57
2019-03-28T07:01:56.213Z,68.27
2019-03-28T07:04:25.997Z,68.56
2019-03-28T07:06:54.488Z,67.60
2019-03-28T07:09:22.982Z,68.30
2019-03-28T07:11:51.493Z,70.16
2019-03-28T07:14:19.978Z,70.60
2019-03-28T07:16:48.463Z,72.42
2019-03-28T07:19:17.055Z,71.77
2019-03-28T07:21:45.601Z,70.88
2019-03-28T07:24:14.116Z,70.62
2019-03-28T07:26:42.607Z,71.29
2019-03-28T07:29:11.173Z,70.90
2019-03-28T07:31:40.512Z,70.46
2019-03-28T07:34:09.160Z,68.78
2019-03-28T07:36:37.709Z,68.41
2019-03-28T07:39:07.438Z,68.53
2019-03-28T07:41:35.918Z,66.54
2019-03-28T07:44:04.693Z,66.40
2019-03-28T07:46:33.200Z,66.34
2019-03-28T07:49:01.755Z,67.46
2019-03-28T07:51:30.253Z,67.90
2019-03-28T07:53:58.754Z,67.37
2019-03-28T07:56:27.249Z,67.52
2019-03-28T07:58:55.767Z,67.62
2019-03-28T08:01:24.315Z,68.57
2019-03-28T08:03:52.805Z,69.23
2019-03-28T08:06:21.319Z,69.27
2019-03-28T08:08:49.807Z,70.87
2019-03-28T08:11:18.410Z,69.01
2019-03-28T08:13:46.953Z,68.64
2019-03-28T08:16:15.454Z,68.36
2019-03-28T08:18:43.953Z,68.87
2019-03-28T08:21:12.434Z,68.14
2019-03-28T08:23:40.956Z,67.62
2019-03-28T08:26:09.780Z,67.05
2019-03-28T08:28:38.415Z,67.08
2019-03-28T08:31:06.915Z,66.92
2019-03-28T08:33:37.801Z,69.24
2019-03-28T08:36:06.539Z,70.31
2019-03-28T08:38:38.073Z,69.51
2019-03-28T08:41:07.255Z,67.94
2019-03-28T08:43:36.169Z,68.24
2019-03-28T08:46:04.816Z,69.12
2019-03-28T08:48:33.396Z,70.15
2019-03-28T08:51:01.961Z,68.51
2019-03-28T08:53:30.447Z,68.97
2019-03-28T08:55:58.942Z,69.23
2019-03-28T08:58:27.463Z,69.25
2019-03-28T09:00:55.942Z,70.98
2019-03-28T09:03:24.510Z,71.23
2019-03-28T09:05:53.036Z,70.61
2019-03-28T09:08:21.526Z,69.03
2019-03-28T09:10:50.029Z,68.03
2019-03-28T09:13:18.604Z,67.39
2019-03-28T09:15:47.128Z,67.05
2019-03-28T09:18:15.614Z,67.03
2019-03-28T09:20:44.145Z,66.91
2019-03-28T09:23:12.626Z,66.58
2019-03-28T09:25:41.146Z,66.98
2019-03-28T09:28:09.656Z,69.48
2019-03-28T09:30:48.143Z,68.42
2019-03-28T09:33:10.499Z,68.86
2019-03-28T09:35:39.118Z,70.15
2019-03-28T09:38:07.836Z,69.16
2019-03-28T09:40:36.324Z,68.79
2019-03-28T09:43:05.346Z,69.29
2019-03-28T09:45:36.618Z,68.79
2019-03-28T09:48:05.269Z,69.09
2019-03-28T09:50:33.813Z,69.41
2019-03-28T09:53:02.401Z,68.71
2019-03-28T09:55:30.927Z,69.11
2019-03-28T09:57:59.422Z,68.70
2019-03-28T10:00:27.904Z,68.76
2019-03-28T10:02:56.404Z,68.31
2019-03-28T10:05:24.891Z,69.32
2019-03-28T10:07:53.395Z,69.14
2019-03-28T10:10:21.945Z,69.36
2019-03-28T10:12:50.461Z,69.33
2019-03-28T10:15:19.112Z,69.40
2019-03-28T10:17:47.600Z,69.08
2019-03-28T10:20:16.166Z,67.33
2019-03-28T10:22:44.658Z,66.29
2019-03-28T10:25:14.581Z,65.85
2019-03-28T10:27:43.173Z,65.41
2019-03-28T10:30:12.607Z,64.67
2019-03-28T10:32:41.258Z,63.88
2019-03-28T10:35:11.337Z,62.51
2019-03-28T10:37:39.820Z,62.71
2019-03-28T10:40:08.574Z,62.51
2019-03-28T10:42:37.121Z,62.48
2019-03-28T10:45:07.784Z,60.42
2019-03-28T10:47:36.272Z,59.63
2019-03-28T10:50:06.351Z,61.47
2019-03-28T10:52:34.836Z,60.26
2019-03-28T10:55:03.518Z,60.61
2019-03-28T10:57:32.429Z,61.48
2019-03-28T11:00:00.979Z,61.06
2019-03-28T11:02:29.491Z,62.07
2019-03-28T11:04:58.003Z,62.51
2019-03-28T11:07:26.489Z,61.62
2019-03-28T11:09:56.270Z,61.96
2019-03-28T11:12:24.715Z,61.68
2019-03-28T11:14:53.225Z,62.87
2019-03-28T11:17:21.892Z,63.38
2019-03-28T11:19:50.575Z,63.18
2019-03-28T11:22:19.059Z,62.44
2019-03-28T11:24:47.596Z,59.29
2019-03-28T11:27:16.080Z,58.52
2019-03-28T11:29:44.600Z,59.77
2019-03-28T11:32:13.191Z,58.03
2019-03-28T11:34:41.707Z,58.25
2019-03-28T11:37:24.972Z,58.73
2019-03-28T11:39:40.436Z,58.52
2019-03-28T11:42:09.055Z,58.98
2019-03-28T11:44:37.550Z,59.77
2019-03-28T11:47:06.039Z,60.70
2019-03-28T11:49:34.564Z,62.82
2019-03-28T11:52:03.049Z,61.78
2019-03-28T11:54:31.534Z,62.59
2019-03-28T11:57:00.116Z,60.94
2019-03-28T11:59:28.605Z,59.52
2019-03-28T12:02:02.054Z,58.99
2019-03-28T12:04:27.397Z,63.47
2019-03-28T12:06:55.913Z,70.38
2019-03-28T12:09:25.969Z,69.11
2019-03-28T12:11:54.479Z,67.32
2019-03-28T12:14:23.032Z,67.02
2019-03-28T12:16:51.532Z,68.47
2019-03-28T12:19:20.018Z,68.66
2019-03-28T12:21:48.497Z,64.78
2019-03-28T12:24:17.012Z,63.63
2019-03-28T12:26:45.499Z,64.62
2019-03-28T12:29:14.041Z,68.12
2019-03-28T12:31:42.558Z,68.19
2019-03-28T12:34:11.039Z,72.63
2019-03-28T12:36:39.528Z,72.00
2019-03-28T12:39:08.291Z,72.20
2019-03-28T12:41:36.863Z,75.12
2019-03-28T12:44:05.346Z,75.88
2019-03-28T12:46:33.868Z,75.44
2019-03-28T12:49:02.622Z,74.98
2019-03-28T12:51:31.118Z,76.42
2019-03-28T12:53:59.631Z,75.89
2019-03-28T12:56:28.114Z,71.44
2019-03-28T12:58:56.617Z,74.54
2019-03-28T13:01:25.097Z,72.79
2019-03-28T13:03:53.609Z,66.75
2019-03-28T13:06:24.150Z,62.69
2019-03-28T13:08:52.667Z,61.34
2019-03-28T13:11:21.190Z,59.77
2019-03-28T13:13:49.697Z,59.28
2019-03-28T13:16:18.184Z,59.35
2019-03-28T13:18:46.697Z,67.27
2019-03-28T13:21:15.183Z,70.89
2019-03-28T13:23:43.685Z,67.70
2019-03-28T13:26:12.168Z,69.73
2019-03-28T13:28:40.684Z,68.76
2019-03-28T13:31:09.179Z,65.02
2019-03-28T13:33:37.698Z,62.64
2019-03-28T13:36:06.269Z,62.47
2019-03-28T13:38:34.750Z,58.75
2019-03-28T13:41:03.305Z,59.67
2019-03-28T13:43:31.777Z,59.03
2019-03-28T13:46:00.925Z,58.60
2019-03-28T13:48:29.451Z,56.34
2019-03-28T13:50:57.944Z,56.20
2019-03-28T13:53:38.890Z,55.30
2019-03-28T13:55:57.700Z,56.85
2019-03-28T13:58:26.191Z,55.64
2019-03-28T14:00:56.217Z,55.63
2019-03-28T14:03:24.986Z,56.94
2019-03-28T14:05:53.481Z,56.53
2019-03-28T14:08:21.958Z,60.82
2019-03-28T14:10:50.472Z,63.34
2019-03-28T14:13:18.948Z,66.08
2019-03-28T14:15:47.457Z,66.49
2019-03-28T14:18:15.958Z,67.04
2019-03-28T14:20:44.456Z,67.46
2019-03-28T14:23:12.949Z,67.09
2019-03-28T14:25:41.419Z,66.82
2019-03-28T14:28:09.913Z,67.54
2019-03-28T14:30:39.628Z,67.03
2019-03-28T14:33:11.550Z,66.19
2019-03-28T14:35:38.683Z,66.32
2019-03-28T14:38:07.214Z,65.74
2019-03-28T14:40:35.675Z,65.44
2019-03-28T14:43:06.711Z,64.69
2019-03-28T14:45:35.813Z,61.98
2019-03-28T14:48:06.844Z,63.27
2019-03-28T14:50:36.695Z,63.47
2019-03-28T14:53:05.817Z,65.20
2019-03-28T14:55:35.343Z,67.11
2019-03-28T14:58:06.713Z,65.74
2019-03-28T15:00:47.308Z,68.58
2019-03-28T15:03:25.545Z,66.68
2019-03-28T15:05:46.833Z,65.89
2019-03-28T15:08:15.397Z,64.84
2019-03-28T15:10:43.992Z,63.75
2019-03-28T15:13:12.495Z,63.42
2019-03-28T15:15:40.983Z,61.04
2019-03-28T15:18:09.521Z,62.72
2019-03-28T15:20:38.034Z,59.87
2019-03-28T15:23:06.611Z,60.11
2019-03-28T15:25:35.094Z,59.57
2019-03-28T15:28:03.617Z,58.81
2019-03-28T15:30:32.112Z,56.71
2019-03-28T15:33:00.625Z,55.74
2019-03-28T15:35:29.186Z,56.88
2019-03-28T15:37:57.699Z,56.02
2019-03-28T15:40:26.253Z,57.49
2019-03-28T15:42:54.768Z,57.26
2019-03-28T15:45:23.269Z,56.04
2019-03-28T15:47:52.261Z,55.09
2019-03-28T15:50:20.831Z,57.04
2019-03-28T15:52:49.319Z,57.94
2019-03-28T15:55:17.821Z,56.21
2019-03-28T15:57:46.339Z,55.18
2019-03-28T16:00:15.467Z,54.96
2019-03-28T16:02:44.058Z,53.86
2019-03-28T16:05:12.652Z,55.29
2019-03-28T16:07:41.166Z,58.01
2019-03-28T16:10:10.490Z,58.67
2019-03-28T16:12:39.078Z,58.31
2019-03-28T16:15:08.304Z,59.66
2019-03-28T16:17:36.814Z,59.03
2019-03-28T16:20:06.455Z,61.65
2019-03-28T16:22:34.949Z,60.38
2019-03-28T16:25:04.140Z,59.76
2019-03-28T16:27:32.634Z,61.10
2019-03-28T16:30:01.145Z,62.82
2019-03-28T16:32:29.669Z,63.93
2019-03-28T16:34:58.326Z,61.80
2019-03-28T16:37:27.693Z,62.37
2019-03-28T16:39:56.451Z,63.04
2019-03-28T16:42:26.486Z,62.53
2019-03-28T16:44:54.999Z,60.10
2019-03-28T16:47:24.754Z,58.92
2019-03-28T16:49:53.278Z,58.70
2019-03-28T16:52:21.774Z,60.00
2019-03-28T16:54:50.293Z,58.64
2019-03-28T16:57:19.216Z,58.03
2019-03-28T16:59:48.277Z,57.62
2019-03-28T17:02:16.802Z,57.19
2019-03-28T17:04:45.288Z,59.58
2019-03-28T17:07:14.879Z,61.06
2019-03-28T17:09:43.442Z,60.98
2019-03-28T17:12:11.955Z,60.06
2019-03-28T17:14:40.478Z,58.90
2019-03-28T17:17:09.032Z,59.29
2019-03-28T17:19:37.510Z,61.26
2019-03-28T17:22:09.332Z,61.78
2019-03-28T17:24:36.229Z,60.63
2019-03-28T17:27:04.797Z,61.04
2019-03-28T17:29:33.316Z,61.21
2019-03-28T17:32:01.808Z,60.34
2019-03-28T17:34:35.236Z,60.20
2019-03-28T17:37:00.629Z,60.51
2019-03-28T17:39:29.156Z,60.01
2019-03-28T17:41:57.919Z,60.53
2019-03-28T17:44:26.556Z,60.93
2019-03-28T17:46:55.052Z,61.50
2019-03-28T17:49:23.602Z,61.28
2019-03-28T17:51:52.095Z,61.25
2019-03-28T17:54:20.652Z,61.54
2019-03-28T17:56:49.247Z,61.37
2019-03-28T17:59:17.778Z,60.72
2019-03-28T18:01:46.643Z,60.84
2019-03-28T18:04:22.823Z,59.75
2019-03-28T18:06:45.490Z,59.75
2019-03-28T18:09:13.949Z,59.64
2019-03-28T18:11:42.751Z,60.37
2019-03-28T18:14:11.240Z,60.87
2019-03-28T18:16:39.738Z,60.85
2019-03-28T18:19:08.251Z,61.08
2019-03-28T18:21:36.823Z,60.01
2019-03-28T18:24:05.329Z,59.83
2019-03-28T18:26:33.920Z,60.63
2019-03-28T18:29:03.442Z,61.06
2019-03-28T18:31:32.030Z,61.35
2019-03-28T18:34:00.550Z,61.74
2019-03-28T18:36:29.105Z,61.85
2019-03-28T18:38:57.645Z,62.30
2019-03-28T18:41:26.146Z,62.68
2019-03-28T18:43:54.673Z,62.45
2019-03-28T18:46:23.165Z,62.23
2019-03-28T18:48:51.683Z,63.12
2019-03-28T18:51:20.237Z,63.23
2019-03-28T18:53:48.771Z,63.09
2019-03-28T18:56:17.251Z,63.22
2019-03-28T18:58:45.770Z,63.43
2019-03-28T19:01:14.264Z,63.30
2019-03-28T19:03:42.814Z,63.37
2019-03-28T19:06:14.687Z,63.35
2019-03-28T19:08:41.601Z,63.94
2019-03-28T19:11:10.211Z,63.96
2019-03-28T19:13:39.654Z,63.75
2019-03-28T19:16:08.284Z,63.62
2019-03-28T19:18:36.791Z,63.26
2019-03-28T19:21:05.380Z,63.68
2019-03-28T19:23:33.876Z,63.73
2019-03-28T19:26:02.485Z,63.91
2019-03-28T19:28:30.980Z,64.31
2019-03-28T19:30:59.491Z,64.73
2019-03-28T19:33:29.003Z,64.52
2019-03-28T19:36:01.336Z,64.26
2019-03-28T19:38:29.493Z,64.75
2019-03-28T19:40:58.608Z,65.02
2019-03-28T19:43:27.612Z,65.22
2019-03-28T19:45:56.110Z,64.72
2019-03-28T19:48:24.629Z,64.85
2019-03-28T19:50:53.117Z,64.82
2019-03-28T19:53:21.616Z,65.00
2019-03-28T19:55:50.106Z,65.01
2019-03-28T19:58:18.627Z,64.88
2019-03-28T20:00:47.416Z,64.54
2019-03-28T20:03:15.951Z,64.66
2019-03-28T20:05:48.086Z,64.27
2019-03-28T20:08:16.426Z,64.82
2019-03-28T20:10:46.519Z,64.89
2019-03-28T20:13:15.042Z,65.02
2019-03-28T20:15:43.534Z,64.86
2019-03-28T20:18:12.125Z,65.02
2019-03-28T20:20:40.696Z,65.30
2019-03-28T20:23:09.254Z,65.54
2019-03-28T20:25:37.763Z,64.97
2019-03-28T20:28:06.787Z,64.91
2019-03-28T20:30:35.442Z,64.93
2019-03-28T20:33:04.460Z,64.94
2019-03-28T20:35:33.016Z,65.28
2019-03-28T20:38:01.517Z,65.61
2019-03-28T20:40:30.007Z,65.23
2019-03-28T20:42:58.617Z,64.83
2019-03-28T20:45:27.114Z,64.72
2019-03-28T20:47:55.614Z,65.01
2019-03-28T20:50:24.573Z,65.46
2019-03-28T20:52:53.057Z,66.01
2019-03-28T20:55:21.537Z,66.35
2019-03-28T20:57:50.152Z,66.45
2019-03-28T21:00:40.062Z,66.09
2019-03-28T21:03:08.817Z,65.93
2019-03-28T21:05:37.441Z,66.37
2019-03-28T21:08:06.186Z,66.42
2019-03-28T21:10:34.680Z,66.20
2019-03-28T21:13:03.203Z,66.21
2019-03-28T21:15:31.722Z,66.25
2019-03-28T21:18:00.973Z,65.94
2019-03-28T21:20:29.598Z,65.97
2019-03-28T21:22:58.087Z,66.01
2019-03-28T21:25:29.470Z,66.05
2019-03-28T21:27:56.839Z,65.78
2019-03-28T21:30:27.072Z,65.55
2019-03-28T21:32:57.665Z,65.98
2019-03-28T21:35:25.881Z,65.59
2019-03-28T21:37:54.502Z,65.74
2019-03-28T21:40:23.008Z,65.71
2019-03-28T21:42:51.562Z,65.86
2019-03-28T21:45:20.047Z,65.68
2019-03-28T21:47:48.585Z,65.48
2019-03-28T21:50:17.079Z,65.72
2019-03-28T21:52:45.572Z,66.02
2019-03-28T21:55:14.226Z,65.96
2019-03-28T21:57:42.840Z,65.92
2019-03-28T22:00:12.635Z,65.80
2019-03-28T22:02:41.139Z,65.51
2019-03-28T22:05:09.975Z,65.54
2019-03-28T22:07:38.496Z,65.35
2019-03-28T22:10:08.923Z,65.64
2019-03-28T22:12:37.622Z,65.52
2019-03-28T22:15:09.428Z,65.56
2019-03-28T22:17:37.218Z,65.84
2019-03-28T22:20:07.643Z,65.84
2019-03-28T22:22:36.150Z,65.57
2019-03-28T22:25:06.723Z,65.69
2019-03-28T22:27:35.211Z,65.68
2019-03-28T22:30:04.108Z,65.56
2019-03-28T22:32:32.602Z,65.35
2019-03-28T22:35:01.119Z,65.58
2019-03-28T22:37:31.691Z,65.63
2019-03-28T22:40:00.487Z,65.92
2019-03-28T22:42:28.960Z,66.74
2019-03-28T22:44:57.493Z,66.30
2019-03-28T22:47:26.036Z,65.90
2019-03-28T22:49:54.525Z,66.08
2019-03-28T22:52:23.083Z,65.93
2019-03-28T22:54:51.522Z,65.77
2019-03-28T22:57:20.057Z,65.70
2019-03-28T22:59:48.563Z,65.56
2019-03-28T23:02:17.056Z,65.26
2019-03-28T23:04:45.626Z,65.34
2019-03-28T23:07:14.587Z,65.54
2019-03-28T23:09:43.339Z,65.48
2019-03-28T23:12:11.844Z,65.42
2019-03-28T23:14:40.335Z,65.38
2019-03-28T23:17:08.946Z,65.43
2019-03-28T23:19:37.436Z,65.37
2019-03-28T23:22:05.957Z,65.40
2019-03-28T23:24:34.465Z,65.46
2019-03-28T23:27:02.984Z,65.36
2019-03-28T23:29:31.490Z,65.57
2019-03-28T23:31:59.993Z,65.70
2019-03-28T23:34:28.486Z,65.62
2019-03-28T23:36:56.990Z,65.84
2019-03-28T23:39:25.531Z,66.81
2019-03-28T23:41:53.984Z,66.54
2019-03-28T23:44:22.503Z,67.34
2019-03-28T23:46:51.002Z,66.65
2019-03-28T23:49:19.577Z,66.53
2019-03-28T23:51:48.246Z,65.91
2019-03-28T23:54:16.744Z,65.37
2019-03-28T23:56:45.241Z,65.34
2019-03-28T23:59:13.749Z,65.25
